createdAt,value
2018-08-25T00:01:32.606Z,30.30
2018-08-25T00:04:00.828Z,30.40
2018-08-25T00:06:28.997Z,30.50
2018-08-25T00:08:57.239Z,30.70
2018-08-25T00:11:25.442Z,30.50
2018-08-25T00:13:53.620Z,30.90
2018-08-25T00:16:21.809Z,30.60
2018-08-25T00:18:49.989Z,30.70
2018-08-25T00:21:18.393Z,30.70
2018-08-25T00:23:46.618Z,30.90
2018-08-25T00:26:14.821Z,30.70
2018-08-25T00:28:43.007Z,30.40
2018-08-25T00:31:16.588Z,30.50
2018-08-25T00:33:44.783Z,30.70
2018-08-25T00:36:13.040Z,30.60
2018-08-25T00:38:41.228Z,30.90
2018-08-25T00:41:09.499Z,30.60
2018-08-25T00:43:37.684Z,30.70
2018-08-25T00:46:05.863Z,30.90
2018-08-25T00:48:34.125Z,31.10
2018-08-25T00:51:02.554Z,31.20
2018-08-25T00:53:30.743Z,31.40
2018-08-25T00:55:58.929Z,31.10
2018-08-25T00:58:27.113Z,31.30
2018-08-25T01:00:55.307Z,31.20
2018-08-25T01:03:23.565Z,31.20
2018-08-25T01:05:51.873Z,31.30
2018-08-25T01:08:20.068Z,31.30
2018-08-25T01:10:48.303Z,31.30
2018-08-25T01:13:16.479Z,31.70
2018-08-25T01:15:44.778Z,31.70
2018-08-25T01:18:26.837Z,31.90
2018-08-25T01:20:55.033Z,32.00
2018-08-25T01:23:24.064Z,32.10
2018-08-25T01:25:52.292Z,31.90
2018-08-25T01:28:20.665Z,32.50
2018-08-25T01:30:48.841Z,32.40
2018-08-25T01:33:20.669Z,33.00
2018-08-25T01:35:52.410Z,33.00
2018-08-25T01:38:20.653Z,33.10
2018-08-25T01:40:48.936Z,33.00
2018-08-25T01:43:18.325Z,33.00
2018-08-25T01:45:46.535Z,33.20
2018-08-25T01:48:14.712Z,33.40
2018-08-25T01:50:42.932Z,33.50
2018-08-25T01:53:11.179Z,33.70
2018-08-25T01:55:39.398Z,34.10
2018-08-25T01:58:08.455Z,34.50
2018-08-25T02:00:36.752Z,35.00
2018-08-25T02:03:04.976Z,35.00
2018-08-25T02:05:33.166Z,35.20
2018-08-25T02:08:03.497Z,35.50
2018-08-25T02:10:31.813Z,35.40
2018-08-25T02:13:00.020Z,35.40
2018-08-25T02:15:28.404Z,35.90
2018-08-25T02:17:56.647Z,35.90
2018-08-25T02:20:25.142Z,35.90
2018-08-25T02:22:53.714Z,36.00
2018-08-25T02:25:21.909Z,36.20
2018-08-25T02:27:50.080Z,36.50
2018-08-25T02:30:18.342Z,36.90
2018-08-25T02:32:46.555Z,37.70
2018-08-25T02:35:14.735Z,37.70
2018-08-25T02:37:42.958Z,37.60
2018-08-25T02:40:11.416Z,37.10
2018-08-25T02:42:39.632Z,37.70
2018-08-25T02:45:07.868Z,39.60
2018-08-25T02:47:36.079Z,42.30
2018-08-25T02:50:04.288Z,46.00
2018-08-25T02:52:32.676Z,46.90
2018-08-25T02:55:00.861Z,49.70
2018-08-25T02:57:29.059Z,53.20
2018-08-25T02:59:57.278Z,56.30
2018-08-25T03:02:25.452Z,59.30
2018-08-25T03:04:53.633Z,65.20
2018-08-25T03:07:21.835Z,66.00
2018-08-25T03:09:50.017Z,70.40
2018-08-25T03:12:18.201Z,79.30
2018-08-25T03:14:46.461Z,74.40
2018-08-25T03:17:14.644Z,80.40
2018-08-25T03:19:42.845Z,79.50
2018-08-25T03:22:11.114Z,78.60
2018-08-25T03:24:45.788Z,79.60
2018-08-25T03:27:14.004Z,82.80
2018-08-25T03:29:42.226Z,85.60
2018-08-25T03:32:10.412Z,87.30
2018-08-25T03:34:38.595Z,90.20
2018-08-25T03:37:06.937Z,90.30
2018-08-25T03:39:35.152Z,91.00
2018-08-25T03:42:03.324Z,89.70
2018-08-25T03:44:31.510Z,91.10
2018-08-25T03:46:59.676Z,91.70
2018-08-25T03:49:27.854Z,92.30
2018-08-25T03:51:56.084Z,92.20
2018-08-25T03:54:24.301Z,92.60
2018-08-25T03:56:52.488Z,92.50
2018-08-25T03:59:20.648Z,92.60
2018-08-25T04:01:48.826Z,93.90
2018-08-25T04:04:17.022Z,94.50
2018-08-25T04:06:45.202Z,95.50
2018-08-25T04:09:14.597Z,95.90
2018-08-25T04:11:42.780Z,97.90
2018-08-25T04:14:12.160Z,97.50
2018-08-25T04:16:40.359Z,98.20
2018-08-25T04:19:12.822Z,98.20
2018-08-25T04:21:41.277Z,99.80
2018-08-25T04:24:09.672Z,99.90
2018-08-25T04:26:37.825Z,99.90
2018-08-25T04:29:06.041Z,99.90
2018-08-25T04:31:34.209Z,99.90
2018-08-25T04:34:02.402Z,99.50
2018-08-25T04:36:30.657Z,99.90
2018-08-25T04:38:58.948Z,99.90
2018-08-25T04:41:27.131Z,99.90
2018-08-25T04:43:55.567Z,99.90
2018-08-25T04:46:24.022Z,99.90
2018-08-25T04:48:52.233Z,99.90
2018-08-25T04:51:20.419Z,99.90
2018-08-25T04:53:48.673Z,99.90
2018-08-25T04:56:16.856Z,99.90
2018-08-25T04:58:45.072Z,99.90
2018-08-25T05:01:13.237Z,99.90
2018-08-25T05:03:41.470Z,99.90
2018-08-25T05:06:09.690Z,99.90
2018-08-25T05:08:37.847Z,99.90
2018-08-25T05:11:06.062Z,99.90
2018-08-25T05:13:34.306Z,99.90
2018-08-25T05:16:02.532Z,99.90
2018-08-25T05:18:30.782Z,99.90
2018-08-25T05:20:59.003Z,99.90
2018-08-25T05:23:27.196Z,99.90
2018-08-25T05:25:55.428Z,99.90
2018-08-25T05:28:23.690Z,99.90
2018-08-25T05:30:51.873Z,99.90
2018-08-25T05:33:20.103Z,99.90
2018-08-25T05:35:48.286Z,99.90
2018-08-25T05:38:16.490Z,99.90
2018-08-25T05:40:44.696Z,99.90
2018-08-25T05:43:12.868Z,99.90
2018-08-25T05:45:41.069Z,99.90
2018-08-25T05:48:09.332Z,99.90
2018-08-25T05:50:37.549Z,99.90
2018-08-25T05:53:05.687Z,99.90
2018-08-25T05:55:33.894Z,99.90
2018-08-25T05:58:02.076Z,99.90
2018-08-25T06:00:30.247Z,99.90
2018-08-25T06:02:59.119Z,99.90
2018-08-25T06:05:27.343Z,99.90
2018-08-25T06:07:55.512Z,99.90
2018-08-25T06:10:23.747Z,99.90
2018-08-25T06:12:51.891Z,99.90
2018-08-25T06:15:20.044Z,99.90
2018-08-25T06:17:48.981Z,99.90
2018-08-25T06:20:17.077Z,99.90
2018-08-25T06:22:45.450Z,99.90
2018-08-25T06:25:13.634Z,99.90
2018-08-25T06:27:41.806Z,99.90
2018-08-25T06:30:10.094Z,99.90
2018-08-25T06:32:38.188Z,99.90
2018-08-25T06:35:06.499Z,99.90
2018-08-25T06:37:34.949Z,99.40
2018-08-25T06:40:03.132Z,99.10
2018-08-25T06:42:31.300Z,99.00
2018-08-25T06:44:59.618Z,98.90
2018-08-25T06:47:27.828Z,98.80
2018-08-25T06:49:55.992Z,97.30
2018-08-25T06:52:24.194Z,98.50
2018-08-25T06:54:52.601Z,98.00
2018-08-25T06:57:20.753Z,97.00
2018-08-25T06:59:48.934Z,98.00
2018-08-25T07:02:17.115Z,96.30
2018-08-25T07:04:45.293Z,96.00
2018-08-25T07:07:13.482Z,96.60
2018-08-25T07:09:41.669Z,95.40
2018-08-25T07:12:09.916Z,95.60
2018-08-25T07:14:38.109Z,94.80
2018-08-25T07:17:06.306Z,94.80
2018-08-25T07:19:34.596Z,95.30
2018-08-25T07:22:02.802Z,93.50
2018-08-25T07:24:30.976Z,92.60
2018-08-25T07:26:59.233Z,92.60
2018-08-25T07:29:27.456Z,92.50
2018-08-25T07:31:55.677Z,92.90
2018-08-25T07:34:23.918Z,93.10
2018-08-25T07:36:52.079Z,93.40
2018-08-25T07:39:20.256Z,92.70
2018-08-25T07:41:48.521Z,90.90
2018-08-25T07:44:16.692Z,90.60
2018-08-25T07:46:44.868Z,90.90
2018-08-25T07:49:13.184Z,90.40
2018-08-25T07:51:41.376Z,91.20
2018-08-25T07:54:09.563Z,92.90
2018-08-25T07:56:37.780Z,90.40
2018-08-25T07:59:05.970Z,89.80
2018-08-25T08:01:34.133Z,85.40
2018-08-25T08:04:02.367Z,84.60
2018-08-25T08:06:31.373Z,79.50
2018-08-25T08:08:59.932Z,80.10
2018-08-25T08:11:28.687Z,80.60
2018-08-25T08:13:56.868Z,81.20
2018-08-25T08:16:25.339Z,81.40
2018-08-25T08:18:53.619Z,80.20
2018-08-25T08:21:21.829Z,79.00
2018-08-25T08:23:50.042Z,79.60
2018-08-25T08:26:18.269Z,79.50
2018-08-25T08:28:46.567Z,77.10
2018-08-25T08:31:14.756Z,77.80
2018-08-25T08:33:43.274Z,78.50
2018-08-25T08:36:11.444Z,77.10
2018-08-25T08:38:40.080Z,73.60
2018-08-25T08:41:08.319Z,74.50
2018-08-25T08:43:36.552Z,72.90
2018-08-25T08:46:05.892Z,69.00
2018-08-25T08:48:34.109Z,65.50
2018-08-25T08:51:03.265Z,66.10
2018-08-25T08:53:31.515Z,64.70
2018-08-25T08:55:59.717Z,65.20
2018-08-25T08:58:27.948Z,63.40
2018-08-25T09:00:56.230Z,61.50
2018-08-25T09:03:24.485Z,57.90
2018-08-25T09:05:52.693Z,59.50
2018-08-25T09:08:20.875Z,55.90
2018-08-25T09:10:49.095Z,52.60
2018-08-25T09:13:17.317Z,50.30
2018-08-25T09:15:45.537Z,46.80
2018-08-25T09:18:13.770Z,44.90
2018-08-25T09:20:41.927Z,47.20
2018-08-25T09:23:10.143Z,47.70
2018-08-25T09:25:38.409Z,48.50
2018-08-25T09:28:06.716Z,48.20
2018-08-25T09:30:35.160Z,42.60
2018-08-25T09:33:03.796Z,44.10
2018-08-25T09:35:32.058Z,47.10
2018-08-25T09:38:00.303Z,47.30
2018-08-25T09:40:28.472Z,47.40
2018-08-25T09:42:56.672Z,45.10
2018-08-25T09:45:24.908Z,41.70
2018-08-25T09:47:53.144Z,42.10
2018-08-25T09:50:21.392Z,40.20
2018-08-25T09:52:49.649Z,40.80
2018-08-25T09:55:17.878Z,41.80
2018-08-25T09:57:46.141Z,42.00
2018-08-25T10:00:14.470Z,41.90
2018-08-25T10:02:42.649Z,41.20
2018-08-25T10:05:10.894Z,40.20
2018-08-25T10:07:39.036Z,40.60
2018-08-25T10:10:07.651Z,39.50
2018-08-25T10:12:35.836Z,41.80
2018-08-25T10:15:04.061Z,41.40
2018-08-25T10:17:32.246Z,41.00
2018-08-25T10:20:00.518Z,39.30
2018-08-25T10:22:28.708Z,40.70
2018-08-25T10:24:56.923Z,40.20
2018-08-25T10:27:25.222Z,40.40
2018-08-25T10:29:53.393Z,39.60
2018-08-25T10:32:21.673Z,40.30
2018-08-25T10:34:49.996Z,37.70
2018-08-25T10:37:18.147Z,37.30
2018-08-25T10:39:46.343Z,37.40
2018-08-25T10:42:14.558Z,38.00
2018-08-25T10:44:42.713Z,39.80
2018-08-25T10:47:10.928Z,40.00
2018-08-25T10:49:39.183Z,35.00
2018-08-25T10:52:07.411Z,32.60
2018-08-25T10:54:35.633Z,31.70
2018-08-25T10:57:03.840Z,35.00
2018-08-25T10:59:32.125Z,35.90
2018-08-25T11:02:00.355Z,37.50
2018-08-25T11:04:28.568Z,35.30
2018-08-25T11:06:56.857Z,34.90
2018-08-25T11:09:25.016Z,33.10
2018-08-25T11:11:53.208Z,30.80
2018-08-25T11:14:21.372Z,30.20
2018-08-25T11:16:49.540Z,30.40
2018-08-25T11:19:17.748Z,32.70
2018-08-25T11:21:45.924Z,34.40
2018-08-25T11:24:14.174Z,34.80
2018-08-25T11:26:42.383Z,35.70
2018-08-25T11:29:10.752Z,36.70
2018-08-25T11:31:38.940Z,34.80
2018-08-25T11:34:07.262Z,34.90
2018-08-25T11:36:35.470Z,34.60
2018-08-25T11:39:04.608Z,35.30
2018-08-25T11:41:32.781Z,36.50
2018-08-25T11:44:01.054Z,37.30
2018-08-25T11:46:29.284Z,36.80
2018-08-25T11:48:57.536Z,37.40
2018-08-25T11:51:25.724Z,36.80
2018-08-25T11:53:54.088Z,35.50
2018-08-25T11:56:22.504Z,34.40
2018-08-25T11:58:50.664Z,32.10
2018-08-25T12:01:19.309Z,30.50
2018-08-25T12:03:47.526Z,30.80
2018-08-25T12:06:15.700Z,29.70
2018-08-25T12:08:43.910Z,31.30
2018-08-25T12:11:12.172Z,29.80
2018-08-25T12:13:40.357Z,29.10
2018-08-25T12:16:08.656Z,29.10
2018-08-25T12:18:37.560Z,28.40
2018-08-25T12:21:05.740Z,29.10
2018-08-25T12:23:33.902Z,29.30
2018-08-25T12:26:02.149Z,27.90
2018-08-25T12:28:30.481Z,28.00
2018-08-25T12:30:58.683Z,28.00
2018-08-25T12:33:26.932Z,28.10
2018-08-25T12:35:55.137Z,28.60
2018-08-25T12:38:23.356Z,29.90
2018-08-25T12:40:51.516Z,29.70
2018-08-25T12:43:19.738Z,33.70
2018-08-25T12:45:47.949Z,57.70
2018-08-25T12:48:16.155Z,88.80
2018-08-25T12:50:44.428Z,94.00
2018-08-25T12:53:12.649Z,93.60
2018-08-25T12:55:40.870Z,96.70
2018-08-25T12:58:09.145Z,98.10
2018-08-25T13:00:37.383Z,98.40
2018-08-25T13:03:05.613Z,94.30
2018-08-25T13:05:33.888Z,93.40
2018-08-25T13:08:02.389Z,90.60
2018-08-25T13:10:30.549Z,92.40
2018-08-25T13:12:58.959Z,90.80
2018-08-25T13:15:27.153Z,92.00
2018-08-25T13:17:55.383Z,89.50
2018-08-25T13:20:23.698Z,82.10
2018-08-25T13:22:51.856Z,77.90
2018-08-25T13:25:20.055Z,71.70
2018-08-25T13:27:48.273Z,70.30
2018-08-25T13:30:16.489Z,64.80
2018-08-25T13:32:44.683Z,63.40
2018-08-25T13:35:13.091Z,53.30
2018-08-25T13:37:41.452Z,58.60
2018-08-25T13:40:09.644Z,57.80
2018-08-25T13:42:37.909Z,49.00
2018-08-25T13:45:07.256Z,51.20
2018-08-25T13:47:35.460Z,45.80
2018-08-25T13:50:03.732Z,48.10
2018-08-25T13:52:31.949Z,45.20
2018-08-25T13:55:00.132Z,45.80
2018-08-25T13:57:28.337Z,45.60
2018-08-25T13:59:56.656Z,44.20
2018-08-25T14:02:24.886Z,47.10
2018-08-25T14:04:53.077Z,49.10
2018-08-25T14:07:21.281Z,57.50
2018-08-25T14:09:49.479Z,72.00
2018-08-25T14:12:17.720Z,80.90
2018-08-25T14:14:46.026Z,82.00
2018-08-25T14:17:14.277Z,82.70
2018-08-25T14:19:42.588Z,80.70
2018-08-25T14:22:11.602Z,80.90
2018-08-25T14:24:39.818Z,83.40
2018-08-25T14:27:08.079Z,80.50
2018-08-25T14:29:38.599Z,82.70
2018-08-25T14:32:07.345Z,77.30
2018-08-25T14:34:35.643Z,77.50
2018-08-25T14:37:03.968Z,75.30
2018-08-25T14:39:32.284Z,72.90
2018-08-25T14:42:00.892Z,67.30
2018-08-25T14:44:30.158Z,65.30
2018-08-25T14:46:58.303Z,69.60
2018-08-25T14:49:26.482Z,68.90
2018-08-25T14:51:54.708Z,60.20
2018-08-25T14:54:23.109Z,64.70
2018-08-25T14:56:51.295Z,65.10
2018-08-25T14:59:19.523Z,64.80
2018-08-25T15:01:47.720Z,63.10
2018-08-25T15:04:15.969Z,69.00
2018-08-25T15:06:44.237Z,74.30
2018-08-25T15:09:13.689Z,72.80
2018-08-25T15:11:42.600Z,70.40
2018-08-25T15:14:10.853Z,72.80
2018-08-25T15:16:39.182Z,78.50
2018-08-25T15:19:07.365Z,74.00
2018-08-25T15:21:35.656Z,75.60
2018-08-25T15:24:03.913Z,76.40
2018-08-25T15:26:32.207Z,78.20
2018-08-25T15:29:00.512Z,75.90
2018-08-25T15:31:28.788Z,74.80
2018-08-25T15:33:57.042Z,71.50
2018-08-25T15:36:25.221Z,71.50
2018-08-25T15:38:53.435Z,71.10
2018-08-25T15:41:21.687Z,65.30
2018-08-25T15:43:49.920Z,65.60
2018-08-25T15:46:18.093Z,67.20
2018-08-25T15:48:46.301Z,62.20
2018-08-25T15:51:14.536Z,60.40
2018-08-25T15:53:42.733Z,58.30
2018-08-25T15:56:10.964Z,64.40
2018-08-25T15:58:39.173Z,60.80
2018-08-25T16:01:07.380Z,61.10
2018-08-25T16:03:35.573Z,63.30
2018-08-25T16:06:03.807Z,58.00
2018-08-25T16:08:32.125Z,64.40
2018-08-25T16:11:00.312Z,62.20
2018-08-25T16:13:28.588Z,62.70
2018-08-25T16:15:56.799Z,60.60
2018-08-25T16:18:25.029Z,58.60
2018-08-25T16:20:53.220Z,57.10
2018-08-25T16:23:21.469Z,60.00
2018-08-25T16:25:49.647Z,62.00
2018-08-25T16:28:18.093Z,62.00
2018-08-25T16:30:46.336Z,63.80
2018-08-25T16:33:14.628Z,64.50
2018-08-25T16:35:42.940Z,66.10
2018-08-25T16:38:11.223Z,67.30
2018-08-25T16:40:39.340Z,69.20
2018-08-25T16:43:07.504Z,69.30
2018-08-25T16:45:35.725Z,68.20
2018-08-25T16:48:03.955Z,66.00
2018-08-25T16:50:32.147Z,61.10
2018-08-25T16:53:00.335Z,59.90
2018-08-25T16:55:29.274Z,55.20
2018-08-25T16:57:57.503Z,61.90
2018-08-25T17:00:25.721Z,63.00
2018-08-25T17:02:54.094Z,67.30
2018-08-25T17:05:23.582Z,56.20
2018-08-25T17:07:51.990Z,55.40
2018-08-25T17:10:20.380Z,51.30
2018-08-25T17:12:48.583Z,49.60
2018-08-25T17:15:16.816Z,48.20
2018-08-25T17:17:45.052Z,44.70
2018-08-25T17:20:13.435Z,46.90
2018-08-25T17:22:41.698Z,51.20
2018-08-25T17:25:09.929Z,49.00
2018-08-25T17:27:38.187Z,48.90
2018-08-25T17:30:06.847Z,49.90
2018-08-25T17:32:35.260Z,47.40
2018-08-25T17:35:04.765Z,44.80
2018-08-25T17:37:33.048Z,45.40
2018-08-25T17:40:01.230Z,44.00
2018-08-25T17:42:29.572Z,46.80
2018-08-25T17:44:57.786Z,46.10
2018-08-25T17:47:25.912Z,43.60
2018-08-25T17:49:54.401Z,45.20
2018-08-25T17:52:22.620Z,47.70
2018-08-25T17:54:50.788Z,49.40
2018-08-25T17:57:19.092Z,51.20
2018-08-25T17:59:47.491Z,49.90
2018-08-25T18:02:15.937Z,49.80
2018-08-25T18:04:44.299Z,51.20
2018-08-25T18:07:12.576Z,52.80
2018-08-25T18:09:40.796Z,53.40
2018-08-25T18:12:09.010Z,54.60
2018-08-25T18:14:37.232Z,56.00
2018-08-25T18:17:05.524Z,55.30
2018-08-25T18:19:33.967Z,56.50
2018-08-25T18:22:02.241Z,57.30
2018-08-25T18:24:30.516Z,59.80
2018-08-25T18:26:58.713Z,60.20
2018-08-25T18:29:26.947Z,61.10
2018-08-25T18:31:55.129Z,62.60
2018-08-25T18:34:23.375Z,64.40
2018-08-25T18:36:51.720Z,64.60
2018-08-25T18:39:19.843Z,63.30
2018-08-25T18:41:48.083Z,63.90
2018-08-25T18:44:16.301Z,62.50
2018-08-25T18:46:44.464Z,62.30
2018-08-25T18:49:13.220Z,62.00
2018-08-25T18:51:41.456Z,61.90
2018-08-25T18:54:09.677Z,61.80
2018-08-25T18:56:38.157Z,62.40
2018-08-25T18:59:06.453Z,61.20
2018-08-25T19:01:34.869Z,61.70
2018-08-25T19:04:03.209Z,60.90
2018-08-25T19:06:31.589Z,61.00
2018-08-25T19:09:00.045Z,61.60
2018-08-25T19:11:28.310Z,61.40
2018-08-25T19:13:56.675Z,62.10
2018-08-25T19:16:24.860Z,62.50
2018-08-25T19:18:53.355Z,62.50
2018-08-25T19:21:21.904Z,63.50
2018-08-25T19:23:50.132Z,62.30
2018-08-25T19:26:18.459Z,65.00
2018-08-25T19:28:46.866Z,64.10
2018-08-25T19:31:15.059Z,64.50
2018-08-25T19:33:43.270Z,65.00
2018-08-25T19:36:11.809Z,65.30
2018-08-25T19:38:40.004Z,65.80
2018-08-25T19:41:09.288Z,67.00
2018-08-25T19:43:37.453Z,67.50
2018-08-25T19:46:05.632Z,67.40
2018-08-25T19:48:33.897Z,67.70
2018-08-25T19:51:02.076Z,66.50
2018-08-25T19:53:30.263Z,66.70
2018-08-25T19:55:58.512Z,66.90
2018-08-25T19:58:26.894Z,67.40
2018-08-25T20:00:55.136Z,67.80
2018-08-25T20:03:23.302Z,68.20
2018-08-25T20:05:51.497Z,69.20
2018-08-25T20:08:19.780Z,68.70
2018-08-25T20:10:48.048Z,69.60
2018-08-25T20:13:16.556Z,70.70
2018-08-25T20:15:44.855Z,70.60
2018-08-25T20:18:13.005Z,70.50
2018-08-25T20:20:41.542Z,70.60
2018-08-25T20:23:09.712Z,70.80
2018-08-25T20:25:37.982Z,70.50
2018-08-25T20:28:06.310Z,71.10
2018-08-25T20:30:34.688Z,71.30
2018-08-25T20:33:02.857Z,71.60
2018-08-25T20:35:31.131Z,71.80
2018-08-25T20:37:59.382Z,71.20
2018-08-25T20:40:27.596Z,71.30
2018-08-25T20:42:55.855Z,71.40
2018-08-25T20:45:24.096Z,71.20
2018-08-25T20:47:52.271Z,71.70
2018-08-25T20:50:20.481Z,71.70
2018-08-25T20:52:48.876Z,71.90
2018-08-25T20:55:17.056Z,73.00
2018-08-25T20:57:45.507Z,73.50
2018-08-25T21:00:13.752Z,73.20
2018-08-25T21:02:41.969Z,73.30
2018-08-25T21:05:10.248Z,73.50
2018-08-25T21:07:38.433Z,73.10
2018-08-25T21:10:07.510Z,73.30
2018-08-25T21:12:35.789Z,73.50
2018-08-25T21:15:03.943Z,74.80
2018-08-25T21:17:32.214Z,75.00
2018-08-25T21:20:00.381Z,73.50
2018-08-25T21:22:28.623Z,73.70
2018-08-25T21:24:56.824Z,73.50
2018-08-25T21:27:25.076Z,75.30
2018-08-25T21:29:53.250Z,75.30
2018-08-25T21:32:21.660Z,77.00
2018-08-25T21:34:49.852Z,76.10
2018-08-25T21:37:18.040Z,77.40
2018-08-25T21:39:46.282Z,77.60
2018-08-25T21:42:14.489Z,75.30
2018-08-25T21:44:42.720Z,76.30
2018-08-25T21:47:10.930Z,76.60
2018-08-25T21:49:39.118Z,77.50
2018-08-25T21:52:07.295Z,77.20
2018-08-25T21:54:35.486Z,78.50
2018-08-25T21:57:03.737Z,76.80
2018-08-25T21:59:32.192Z,77.10
2018-08-25T22:02:00.364Z,78.80
2018-08-25T22:04:29.343Z,79.20
2018-08-25T22:06:58.188Z,79.20
2018-08-25T22:09:26.377Z,78.70
2018-08-25T22:11:54.977Z,78.10
2018-08-25T22:14:23.156Z,79.00
2018-08-25T22:16:51.732Z,79.20
2018-08-25T22:19:20.183Z,78.50
2018-08-25T22:21:48.377Z,79.20
2018-08-25T22:24:16.575Z,79.10
2018-08-25T22:26:44.973Z,79.50
2018-08-25T22:29:13.162Z,81.40
2018-08-25T22:31:41.343Z,80.50
2018-08-25T22:34:09.545Z,81.60
2018-08-25T22:36:37.779Z,82.90
2018-08-25T22:39:07.804Z,82.80
2018-08-25T22:41:36.131Z,83.30
2018-08-25T22:44:04.305Z,83.90
2018-08-25T22:46:32.524Z,83.70
2018-08-25T22:49:00.716Z,84.60
2018-08-25T22:51:29.010Z,84.70
2018-08-25T22:53:57.275Z,85.50
2018-08-25T22:56:25.460Z,85.90
2018-08-25T22:58:53.680Z,86.50
2018-08-25T23:01:21.901Z,87.20
2018-08-25T23:03:50.059Z,87.80
2018-08-25T23:06:18.344Z,89.10
2018-08-25T23:08:46.517Z,88.80
2018-08-25T23:11:14.697Z,89.00
2018-08-25T23:13:42.883Z,89.40
2018-08-25T23:16:11.059Z,89.50
2018-08-25T23:18:39.255Z,89.50
2018-08-25T23:21:07.478Z,89.90
2018-08-25T23:23:35.700Z,90.00
2018-08-25T23:26:04.164Z,90.20
2018-08-25T23:28:32.380Z,90.20
2018-08-25T23:31:00.575Z,90.20
2018-08-25T23:33:28.786Z,90.50
2018-08-25T23:35:56.944Z,91.10
2018-08-25T23:38:25.133Z,91.40
2018-08-25T23:40:53.363Z,91.30
2018-08-25T23:43:21.539Z,91.40
2018-08-25T23:45:49.761Z,91.10
2018-08-25T23:48:17.940Z,91.90
2018-08-25T23:50:46.096Z,92.00
2018-08-25T23:53:14.289Z,92.50
2018-08-25T23:55:42.460Z,93.20
2018-08-25T23:58:10.668Z,93.00
